Time;durP1;ratioP1;P1;durP2;ratioP2;P2;SDS_P1;SDS_P2;PMS_P1;PMS_P2;Temp;Humidity;BMP_temperature;BMP_pressure;BME280_temperature;BME280_humidity;BME280_pressure;Samples;Min_cycle;Max_cycle;Signal;HPM_P1;HPM_P2
2022/03/13 00:00:54;;;;;;;15.15;12.18;;;;;;;11.55;51.28;101378.13;5112990;28;20027;-74
2022/03/13 00:03:22;;;;;;;14.82;11.45;;;;;;;11.56;51.75;101381.66;5078018;28;20034;-74
2022/03/13 00:05:51;;;;;;;14.32;11.45;;;;;;;11.50;51.81;101382.00;5091728;28;20058;-74
2022/03/13 00:08:27;;;;;;;14.00;11.02;;;;;;;11.50;52.23;101380.22;5099724;28;20032;-74
2022/03/13 00:11:01;;;;;;;12.15;10.73;;;;;;;11.46;52.16;101375.16;5086497;28;20081;-74
2022/03/13 00:13:31;;;;;;;13.63;11.10;;;;;;;11.43;52.09;101378.84;5095781;28;20379;-74
2022/03/13 00:16:12;;;;;;;15.10;11.55;;;;;;;11.46;52.18;101376.00;5094593;28;20032;-74
2022/03/13 00:18:44;;;;;;;11.98;10.73;;;;;;;11.42;52.34;101370.97;5112506;28;20469;-74
2022/03/13 00:21:10;;;;;;;12.48;10.95;;;;;;;11.46;52.38;101373.34;5113645;28;20027;-74
2022/03/13 00:23:36;;;;;;;12.02;10.52;;;;;;;11.41;52.79;101375.41;5113656;28;20016;-74
2022/03/13 00:26:03;;;;;;;12.93;10.30;;;;;;;11.32;52.84;101362.63;5098710;28;20035;-74
2022/03/13 00:28:28;;;;;;;13.50;10.77;;;;;;;11.33;52.55;101361.69;5080156;28;20129;-74
2022/03/13 00:30:54;;;;;;;12.20;10.48;;;;;;;11.34;53.10;101361.59;5074284;28;20071;-74
2022/03/13 00:33:20;;;;;;;12.27;10.93;;;;;;;11.43;52.37;101356.69;5100511;28;20032;-74
2022/03/13 00:35:45;;;;;;;14.48;11.38;;;;;;;11.41;52.34;101346.09;5077231;28;20487;-74
2022/03/13 00:38:11;;;;;;;13.23;10.77;;;;;;;11.45;52.13;101344.16;5083094;28;20047;-74
2022/03/13 00:40:37;;;;;;;12.90;11.02;;;;;;;11.38;52.59;101340.97;5102857;28;20031;-74
2022/03/13 00:43:04;;;;;;;13.93;11.00;;;;;;;11.36;52.30;101342.88;5107319;28;20019;-74
2022/03/13 00:45:30;;;;;;;11.75;10.45;;;;;;;11.39;52.18;101348.03;5103704;28;20047;-74
2022/03/13 00:47:59;;;;;;;17.83;11.13;;;;;;;11.34;52.21;101347.44;5106616;28;20023;-74
2022/03/13 00:50:25;;;;;;;13.30;10.67;;;;;;;11.39;52.63;101350.69;5110047;28;20480;-74
2022/03/13 00:52:51;;;;;;;13.23;11.05;;;;;;;11.37;52.51;101345.44;5065467;28;20118;-74
2022/03/13 00:55:17;;;;;;;12.75;11.10;;;;;;;11.34;52.23;101345.63;5075192;28;20036;-74
2022/03/13 00:57:43;;;;;;;13.25;10.85;;;;;;;11.33;52.44;101343.06;5105523;28;20036;-74
2022/03/13 01:00:11;;;;;;;12.80;10.80;;;;;;;11.26;52.47;101333.69;5075365;28;20032;-74
2022/03/13 01:02:37;;;;;;;12.52;11.18;;;;;;;11.28;52.46;101331.81;5078844;28;20567;-74
2022/03/13 01:05:03;;;;;;;15.73;11.52;;;;;;;11.32;52.70;101328.00;5083720;28;20043;-74
2022/03/13 01:07:29;;;;;;;13.18;10.32;;;;;;;11.20;52.75;101332.25;5083961;28;20561;-74
2022/03/13 01:09:57;;;;;;;12.82;10.75;;;;;;;11.23;52.85;101329.41;5109589;28;20067;-74
2022/03/13 01:12:23;;;;;;;12.38;10.70;;;;;;;11.24;53.37;101332.94;5094849;28;20114;-74
2022/03/13 01:14:48;;;;;;;12.65;10.50;;;;;;;11.21;53.50;101322.47;5073941;28;20114;-74
2022/03/13 01:17:19;;;;;;;13.48;10.02;;;;;;;11.14;53.61;101317.47;5094058;28;20425;-74
2022/03/13 01:19:44;;;;;;;13.27;10.52;;;;;;;11.13;53.58;101318.44;5100312;28;20019;-74
2022/03/13 01:22:11;;;;;;;11.50;10.30;;;;;;;11.04;53.96;101302.16;5052982;28;20089;-74
2022/03/13 01:24:43;;;;;;;12.32;10.65;;;;;;;11.02;53.59;101304.88;5101505;28;20073;-74
2022/03/13 01:27:10;;;;;;;13.77;11.07;;;;;;;11.01;53.88;101299.66;5075184;28;20028;-74
2022/03/13 01:29:35;;;;;;;12.82;10.38;;;;;;;11.05;53.77;101306.50;5103833;28;20513;-74
2022/03/13 01:32:01;;;;;;;11.60;10.10;;;;;;;10.98;54.01;101307.81;5079047;28;20023;-74
2022/03/13 01:34:39;;;;;;;12.27;10.60;;;;;;;10.93;54.17;101302.75;5081911;28;20495;-74
2022/03/13 01:37:08;;;;;;;11.93;10.52;;;;;;;10.88;54.45;101297.72;5092834;28;20078;-74
2022/03/13 01:39:34;;;;;;;11.45;9.82;;;;;;;10.89;54.29;101301.22;5078850;28;20024;-74
2022/03/13 01:42:00;;;;;;;11.55;10.15;;;;;;;10.84;54.79;101297.97;5076693;28;20102;-74
2022/03/13 01:44:26;;;;;;;12.77;10.38;;;;;;;10.80;54.70;101276.00;5111149;28;20152;-74
2022/03/13 01:46:53;;;;;;;12.77;10.10;;;;;;;10.80;54.67;101280.47;5098738;28;20390;-74
2022/03/13 01:49:19;;;;;;;12.18;10.45;;;;;;;10.82;55.21;101279.41;5093591;28;20024;-74
2022/03/13 01:51:45;;;;;;;11.30;10.10;;;;;;;10.75;55.25;101285.19;5088591;28;20035;-74
2022/03/13 01:54:14;;;;;;;12.13;9.40;;;;;;;10.73;55.14;101271.94;5106684;28;20091;-74
2022/03/13 01:56:42;;;;;;;11.20;9.77;;;;;;;10.75;55.09;101267.41;5110308;28;20118;-74
2022/03/13 01:59:10;;;;;;;11.80;9.35;;;;;;;10.73;55.25;101266.63;5094567;28;20494;-74
2022/03/13 02:01:36;;;;;;;12.52;10.00;;;;;;;10.71;55.40;101279.19;5095182;28;20545;-74
2022/03/13 02:04:02;;;;;;;11.40;9.63;;;;;;;10.63;55.40;101271.63;5075629;28;20062;-74
2022/03/13 02:06:27;;;;;;;12.43;9.38;;;;;;;10.65;55.78;101275.06;5095514;28;20119;-74
2022/03/13 02:08:54;;;;;;;11.48;9.93;;;;;;;10.62;56.01;101271.72;5075573;28;20104;-74
2022/03/13 02:11:22;;;;;;;11.35;8.88;;;;;;;10.60;56.18;101266.47;5093234;28;20035;-74
2022/03/13 02:13:50;;;;;;;11.63;9.65;;;;;;;10.59;56.04;101270.09;5093880;28;20020;-74
2022/03/13 02:16:17;;;;;;;10.63;9.52;;;;;;;10.57;56.38;101271.97;5091447;28;20031;-74
2022/03/13 02:18:50;;;;;;;10.18;9.07;;;;;;;10.49;56.51;101255.59;5092684;28;20032;-74
2022/03/13 02:21:24;;;;;;;10.57;9.50;;;;;;;10.51;56.18;101264.34;5100354;28;20027;-74
2022/03/13 02:23:49;;;;;;;11.18;9.75;;;;;;;10.57;56.15;101265.81;5107016;28;20036;-74
2022/03/13 02:26:15;;;;;;;12.05;10.05;;;;;;;10.48;56.65;101271.63;5092370;28;20544;-74
2022/03/13 02:28:54;;;;;;;13.90;10.00;;;;;;;10.55;56.58;101265.03;5075706;28;20195;-74
2022/03/13 02:31:29;;;;;;;18.70;11.30;;;;;;;10.54;56.31;101277.47;5094768;28;20028;-74
2022/03/13 02:33:57;;;;;;;14.50;10.98;;;;;;;10.54;56.07;101282.78;5099122;28;20064;-74
2022/03/13 02:36:32;;;;;;;14.68;11.65;;;;;;;10.53;55.91;101278.41;5093455;28;20084;-74
2022/03/13 02:38:58;;;;;;;13.60;12.20;;;;;;;10.52;56.31;101274.03;5103539;28;20035;-74
2022/03/13 02:41:26;;;;;;;14.77;12.75;;;;;;;10.42;56.42;101259.53;5089134;28;20073;-74
2022/03/13 02:43:52;;;;;;;15.23;12.18;;;;;;;10.45;56.59;101267.34;5099692;28;20156;-74
2022/03/13 02:46:20;;;;;;;15.90;12.38;;;;;;;10.46;56.71;101267.25;5080024;28;20039;-74
2022/03/13 02:48:49;;;;;;;14.48;12.00;;;;;;;10.42;56.98;101256.88;5085936;28;20492;-74
2022/03/13 02:51:15;;;;;;;16.27;12.50;;;;;;;10.43;56.89;101261.25;5094851;28;20042;-74
2022/03/13 02:53:41;;;;;;;17.40;12.93;;;;;;;10.41;57.63;101258.69;5093198;28;20440;-74
2022/03/13 02:56:09;;;;;;;15.52;12.82;;;;;;;10.44;57.79;101254.97;5079876;28;20027;-74
2022/03/13 02:58:34;;;;;;;15.43;12.48;;;;;;;10.54;57.72;101261.50;5097868;28;20028;-74
2022/03/13 03:01:00;;;;;;;16.05;12.60;;;;;;;10.50;58.26;101254.66;5091142;28;20028;-74
2022/03/13 03:03:26;;;;;;;16.05;14.23;;;;;;;10.42;58.47;101252.41;5106255;28;20024;-74
2022/03/13 03:05:52;;;;;;;14.82;13.32;;;;;;;10.38;58.53;101239.38;5077314;28;20055;-74
2022/03/13 03:08:17;;;;;;;16.73;13.88;;;;;;;10.33;58.61;101226.34;5095472;28;20381;-74
2022/03/13 03:10:44;;;;;;;14.82;13.32;;;;;;;10.40;59.12;101245.47;5100541;28;20047;-74
2022/03/13 03:13:11;;;;;;;16.80;13.95;;;;;;;10.41;58.83;101239.19;5095525;28;20028;-74
2022/03/13 03:15:38;;;;;;;19.63;13.98;;;;;;;10.27;59.65;101228.50;5095289;28;20466;-74
2022/03/13 03:18:07;;;;;;;16.02;14.30;;;;;;;10.33;59.59;101238.78;5112275;28;20028;-74
2022/03/13 03:20:34;;;;;;;16.55;14.30;;;;;;;10.33;60.58;101238.78;5100705;28;20016;-74
2022/03/13 03:23:00;;;;;;;15.88;13.65;;;;;;;10.35;60.27;101239.53;5112019;28;20032;-74
2022/03/13 03:25:27;;;;;;;16.33;14.32;;;;;;;10.32;60.25;101237.91;5114811;28;20077;-74
2022/03/13 03:27:55;;;;;;;16.75;14.70;;;;;;;10.29;60.67;101235.41;5102141;28;20069;-74
2022/03/13 03:30:22;;;;;;;18.10;15.23;;;;;;;10.28;60.47;101227.53;5100124;28;20115;-74
2022/03/13 03:32:49;;;;;;;20.17;15.13;;;;;;;10.35;60.91;101226.25;5097940;28;20020;-74
2022/03/13 03:35:17;;;;;;;18.30;14.88;;;;;;;10.30;61.64;101228.31;5093336;28;20038;-74
2022/03/13 03:37:42;;;;;;;19.48;15.63;;;;;;;10.27;60.56;101231.16;5095782;28;20032;-74
2022/03/13 03:40:11;;;;;;;19.27;15.18;;;;;;;10.28;61.76;101227.53;5080292;28;20034;-74
2022/03/13 03:42:37;;;;;;;18.85;15.55;;;;;;;10.31;61.77;101227.38;5088812;28;20511;-74
2022/03/13 03:45:03;;;;;;;18.80;16.13;;;;;;;10.29;60.94;101235.41;5075967;28;20070;-74
2022/03/13 03:47:29;;;;;;;19.15;16.23;;;;;;;10.32;61.68;101235.25;5112577;28;20024;-74
2022/03/13 03:49:55;;;;;;;18.33;15.27;;;;;;;10.22;61.18;101232.22;5091700;28;20043;-74
2022/03/13 03:52:20;;;;;;;20.67;16.83;;;;;;;10.19;61.39;101229.72;5084208;28;20031;-74
2022/03/13 03:54:46;;;;;;;19.17;16.15;;;;;;;10.18;62.05;101235.16;5082489;28;20093;-74
2022/03/13 03:57:14;;;;;;;20.58;16.40;;;;;;;10.09;61.15;101222.34;5098839;28;20032;-74
2022/03/13 03:59:39;;;;;;;22.40;16.88;;;;;;;10.11;61.34;101228.44;5103982;28;20096;-74
2022/03/13 04:02:05;;;;;;;21.55;17.13;;;;;;;10.06;61.85;101222.50;5102967;28;20032;-74
2022/03/13 04:04:30;;;;;;;24.08;18.08;;;;;;;10.01;62.39;101217.47;5080297;28;20032;-74
2022/03/13 04:06:56;;;;;;;20.50;16.83;;;;;;;10.06;62.31;101226.06;5070293;28;20055;-74
2022/03/13 04:09:22;;;;;;;20.73;16.35;;;;;;;10.04;61.97;101219.94;5088408;28;20040;-74
2022/03/13 04:11:47;;;;;;;23.77;17.45;;;;;;;9.96;61.76;101212.38;5080726;28;20043;-74
2022/03/13 04:14:14;;;;;;;22.10;18.25;;;;;;;10.01;61.97;101220.97;5110149;28;20378;-74
2022/03/13 04:16:42;;;;;;;24.25;18.48;;;;;;;9.96;61.29;101217.69;5094465;28;20050;-74
2022/03/13 04:19:09;;;;;;;23.60;18.83;;;;;;;9.93;61.00;101219.69;5062565;28;20126;-74
2022/03/13 04:21:40;;;;;;;27.02;19.83;;;;;;;9.81;61.02;101213.22;5093172;28;20482;-74
2022/03/13 04:24:06;;;;;;;24.90;20.40;;;;;;;9.86;61.23;101219.16;5095107;28;20031;-73
2022/03/13 04:26:31;;;;;;;23.50;19.70;;;;;;;9.91;61.40;101232.16;5092486;28;20039;-74
2022/03/13 04:28:57;;;;;;;25.50;20.83;;;;;;;9.93;61.29;101222.34;5080185;28;20032;-74
2022/03/13 04:31:24;;;;;;;25.27;20.85;;;;;;;9.89;61.85;101212.81;5112943;28;20027;-74
2022/03/13 04:33:49;;;;;;;30.40;21.30;;;;;;;9.87;61.94;101217.34;5104901;28;20471;-74
2022/03/13 04:36:22;;;;;;;26.60;21.48;;;;;;;9.75;63.02;101206.44;5099381;28;20061;-74
2022/03/13 04:38:49;;;;;;;27.50;21.98;;;;;;;9.79;63.45;101223.06;5109832;28;20035;-74
2022/03/13 04:41:15;;;;;;;29.77;22.58;;;;;;;9.65;63.97;101207.03;5095641;28;20044;-74
2022/03/13 04:43:40;;;;;;;28.17;22.45;;;;;;;9.69;63.61;101211.22;5093989;28;20031;-74
2022/03/13 04:46:08;;;;;;;30.75;22.13;;;;;;;9.58;63.91;101206.47;5093450;28;20062;-74
2022/03/13 04:48:34;;;;;;;30.73;22.77;;;;;;;9.52;64.14;101212.13;5083316;28;20048;-74
2022/03/13 04:51:00;;;;;;;29.33;22.85;;;;;;;9.50;64.77;101214.00;5096707;28;20172;-74
2022/03/13 04:53:26;;;;;;;28.00;22.85;;;;;;;9.49;64.98;101217.59;5111378;28;20482;-74
2022/03/13 04:55:52;;;;;;;28.38;23.38;;;;;;;9.40;65.45;101210.97;5094147;28;20449;-75
2022/03/13 04:58:18;;;;;;;27.15;21.90;;;;;;;9.52;64.91;101223.59;5093553;28;20028;-74
2022/03/13 05:00:47;;;;;;;29.45;22.88;;;;;;;9.41;64.55;101206.50;5086621;28;20043;-74
2022/03/13 05:03:15;;;;;;;25.77;22.48;;;;;;;9.43;64.52;101221.44;5096876;28;20469;-74
2022/03/13 05:05:41;;;;;;;29.90;22.55;;;;;;;9.35;64.71;101207.69;5094458;28;20131;-74
2022/03/13 05:08:15;;;;;;;28.63;21.77;;;;;;;9.32;65.80;101216.69;5081877;28;20537;-74
2022/03/13 05:10:43;;;;;;;27.08;22.77;;;;;;;9.28;63.52;101208.97;5112675;28;20458;-74
2022/03/13 05:13:12;;;;;;;26.55;21.73;;;;;;;9.30;64.59;101204.44;5097672;28;20027;-74
2022/03/13 05:15:39;;;;;;;26.85;21.92;;;;;;;9.31;63.31;101212.31;5105990;28;20163;-74
2022/03/13 05:18:05;;;;;;;26.27;21.20;;;;;;;9.26;62.92;101202.88;5082705;28;20024;-74
2022/03/13 05:20:35;;;;;;;29.77;20.58;;;;;;;9.18;62.30;101205.09;5102265;28;20019;-74
2022/03/13 05:23:05;;;;;;;28.70;21.02;;;;;;;9.16;62.79;101202.50;5076236;28;20028;-74
2022/03/13 05:25:31;;;;;;;;;;;;;;;9.28;62.27;101209.81;5094660;28;20024;-74
2022/03/13 05:27:57;;;;;;;27.17;20.73;;;;;;;9.15;62.28;101207.84;5081482;28;19912;-74
2022/03/13 05:30:24;;;;;;;27.00;21.30;;;;;;;9.14;62.14;101222.06;5082929;28;20070;-73
2022/03/13 05:32:50;;;;;;;24.70;21.25;;;;;;;9.07;62.92;101197.66;5076158;28;20016;-74
2022/03/13 05:35:17;;;;;;;27.95;21.83;;;;;;;9.13;62.55;101217.72;5074855;28;20495;-74
2022/03/13 05:37:44;;;;;;;28.38;20.63;;;;;;;9.16;62.16;101210.44;5096732;28;20027;-74
2022/03/13 05:40:15;;;;;;;29.00;21.60;;;;;;;9.22;62.66;101210.13;5093210;28;20016;-74
2022/03/13 05:42:43;;;;;;;25.52;19.83;;;;;;;9.15;62.37;101203.44;5102257;28;20023;-74
2022/03/13 05:45:10;;;;;;;26.42;21.25;;;;;;;9.11;62.40;101201.84;5111516;28;20102;-74
2022/03/13 05:47:45;;;;;;;25.15;20.17;;;;;;;9.16;61.90;101218.41;5098524;28;20024;-74
2022/03/13 05:50:11;;;;;;;25.33;20.58;;;;;;;9.13;61.31;101215.91;5091381;28;20499;-74
2022/03/13 05:52:42;;;;;;;26.05;20.48;;;;;;;9.12;61.07;101215.97;5094295;28;20024;-74
2022/03/13 05:55:08;;;;;;;24.38;20.67;;;;;;;9.08;61.80;101224.09;5092085;28;20826;-74
2022/03/13 05:57:34;;;;;;;26.67;20.02;;;;;;;9.13;61.74;101215.91;5081655;28;20039;-74
2022/03/13 06:00:00;;;;;;;25.52;20.38;;;;;;;9.15;61.66;101219.34;5111103;28;20012;-74
2022/03/13 06:02:28;;;;;;;25.02;20.50;;;;;;;9.09;61.48;101215.22;5086839;28;20408;-73
2022/03/13 06:04:54;;;;;;;23.77;19.55;;;;;;;9.06;60.98;101217.19;5103082;28;20023;-74
2022/03/13 06:07:20;;;;;;;24.40;20.10;;;;;;;9.05;61.05;101223.41;5098052;28;20039;-74
2022/03/13 06:09:45;;;;;;;26.77;20.35;;;;;;;9.07;61.12;101224.19;5068303;28;20470;-74
2022/03/13 06:12:12;;;;;;;24.13;19.73;;;;;;;9.05;61.26;101226.06;5066214;28;20077;-74
2022/03/13 06:14:38;;;;;;;23.92;20.45;;;;;;;9.01;60.71;101221.84;5111102;28;20068;-74
2022/03/13 06:17:06;;;;;;;25.58;20.27;;;;;;;9.01;60.85;101216.53;5075515;28;20027;-73
2022/03/13 06:19:32;;;;;;;24.23;20.15;;;;;;;9.00;61.58;101210.38;5079432;28;20015;-74
2022/03/13 06:21:57;;;;;;;25.98;19.77;;;;;;;8.98;61.40;101227.31;5111099;28;20030;-74
2022/03/13 06:24:25;;;;;;;25.90;19.48;;;;;;;9.03;60.57;101218.19;5080573;28;20078;-74
2022/03/13 06:26:51;;;;;;;24.48;19.33;;;;;;;9.02;60.75;101216.44;5093473;28;20042;-74
2022/03/13 06:29:17;;;;;;;25.33;20.02;;;;;;;9.15;60.26;101226.44;5099331;28;20034;-74
2022/03/13 06:31:43;;;;;;;23.92;20.42;;;;;;;9.07;59.82;101230.34;5081157;28;20028;-74
2022/03/13 06:34:08;;;;;;;25.95;19.38;;;;;;;9.03;59.88;101223.50;5098276;28;20542;-74
2022/03/13 06:36:35;;;;;;;22.33;18.38;;;;;;;9.10;59.77;101229.34;5095329;28;20111;-74
2022/03/13 06:39:02;;;;;;;27.85;18.60;;;;;;;9.05;59.72;101231.38;5093441;28;20027;-74
2022/03/13 06:41:28;;;;;;;23.42;18.25;;;;;;;9.07;60.40;101221.53;5100488;28;20051;-74
2022/03/13 06:43:54;;;;;;;29.42;18.90;;;;;;;9.06;59.08;101227.78;5097825;28;20529;-74
2022/03/13 06:46:19;;;;;;;22.92;19.65;;;;;;;8.97;59.65;101215.84;5066377;28;20028;-74
2022/03/13 06:48:45;;;;;;;24.98;19.35;;;;;;;9.10;59.75;101219.59;5095697;28;20034;-74
2022/03/13 06:51:12;;;;;;;24.77;18.05;;;;;;;9.12;59.50;101223.94;5095586;28;20067;-74
2022/03/13 06:53:39;;;;;;;23.80;19.20;;;;;;;9.03;59.39;101206.69;5075103;28;20056;-74
2022/03/13 06:56:06;;;;;;;22.08;19.35;;;;;;;9.17;59.05;101225.44;5089734;28;20397;-74
2022/03/13 06:58:32;;;;;;;23.45;18.92;;;;;;;9.17;58.64;101221.91;5083632;28;20074;-74
2022/03/13 07:00:57;;;;;;;25.10;18.75;;;;;;;9.19;58.20;101228.00;5096806;28;20016;-74
2022/03/13 07:03:23;;;;;;;22.92;18.73;;;;;;;9.15;58.26;101235.28;5090325;28;20111;-74
2022/03/13 07:05:48;;;;;;;23.55;19.17;;;;;;;9.16;58.47;101223.72;5076794;28;20083;-74
2022/03/13 07:08:17;;;;;;;27.60;20.02;;;;;;;9.10;58.28;101214.28;5077570;28;20063;-74
2022/03/13 07:10:43;;;;;;;26.85;20.00;;;;;;;9.14;58.00;101228.25;5094475;28;20125;-74
2022/03/13 07:13:16;;;;;;;23.73;19.55;;;;;;;9.18;58.21;101231.63;5093564;28;20055;-74
2022/03/13 07:15:42;;;;;;;25.00;19.75;;;;;;;9.20;58.55;101224.41;5094978;28;20118;-74
2022/03/13 07:18:08;;;;;;;24.80;19.10;;;;;;;9.22;58.01;101227.84;5100061;28;20105;-74
2022/03/13 07:20:34;;;;;;;25.75;18.92;;;;;;;9.28;58.38;101230.19;5069858;28;20048;-74
2022/03/13 07:22:59;;;;;;;28.55;18.90;;;;;;;9.20;58.04;101227.91;5089725;28;20114;-74
2022/03/13 07:25:25;;;;;;;23.17;19.55;;;;;;;9.21;59.05;101213.75;5065778;28;20046;-74
2022/03/13 07:27:51;;;;;;;24.95;19.02;;;;;;;9.25;58.35;101220.59;5106042;28;20436;-74
2022/03/13 07:30:16;;;;;;;21.10;17.80;;;;;;;9.25;58.34;101209.13;5062189;28;20032;-74
2022/03/13 07:32:43;;;;;;;24.08;18.48;;;;;;;9.29;59.02;101223.94;5077981;28;20410;-74
2022/03/13 07:35:09;;;;;;;26.38;19.58;;;;;;;9.29;57.96;101218.63;5098824;28;20027;-74
2022/03/13 07:37:35;;;;;;;22.65;18.40;;;;;;;9.22;58.03;101214.59;5098038;28;20033;-74
2022/03/13 07:40:01;;;;;;;23.02;19.30;;;;;;;9.28;58.03;101220.44;5114579;28;20420;-74
2022/03/13 07:42:26;;;;;;;25.00;19.23;;;;;;;9.33;57.71;101221.06;5063051;28;20035;-74
2022/03/13 07:44:52;;;;;;;26.45;19.05;;;;;;;9.39;57.76;101219.88;5080753;28;20067;-74
2022/03/13 07:47:18;;;;;;;24.05;19.33;;;;;;;9.44;57.60;101209.88;5100717;28;20032;-74
2022/03/13 07:49:44;;;;;;;25.02;19.63;;;;;;;9.49;57.99;101213.13;5103039;28;20024;-74
2022/03/13 07:52:10;;;;;;;23.08;18.23;;;;;;;9.50;57.79;101216.66;5096043;28;20031;-74
2022/03/13 07:54:38;;;;;;;25.17;19.50;;;;;;;9.54;58.34;101216.41;5099138;28;20463;-74
2022/03/13 07:57:04;;;;;;;25.25;19.08;;;;;;;9.57;57.27;101215.41;5063453;28;20092;-74
2022/03/13 07:59:29;;;;;;;24.75;19.05;;;;;;;9.60;57.14;101215.25;5078750;28;20027;-74
2022/03/13 08:01:55;;;;;;;25.65;19.98;;;;;;;9.65;57.68;101217.66;5094348;28;20390;-74
2022/03/13 08:04:20;;;;;;;26.08;19.50;;;;;;;9.71;57.14;101215.53;5081365;28;20035;-74
2022/03/13 08:06:46;;;;;;;21.75;18.65;;;;;;;9.75;56.61;101206.44;5094456;28;20092;-74
2022/03/13 08:09:12;;;;;;;22.33;18.20;;;;;;;9.81;56.29;101218.53;5095309;28;20384;-74
2022/03/13 08:11:38;;;;;;;24.70;20.02;;;;;;;9.88;56.45;101217.28;5078980;28;20043;-74
2022/03/13 08:14:07;;;;;;;25.27;19.58;;;;;;;9.98;56.63;101220.28;5108559;28;20028;-74
2022/03/13 08:16:33;;;;;;;23.48;18.75;;;;;;;10.06;56.49;101211.88;5093970;28;20050;-74
2022/03/13 08:19:02;;;;;;;24.23;19.38;;;;;;;10.10;55.79;101222.28;5082287;28;20471;-74
2022/03/13 08:21:28;;;;;;;25.58;19.52;;;;;;;10.13;56.41;101216.78;5100343;28;20115;-74
2022/03/13 08:23:54;;;;;;;23.50;18.48;;;;;;;10.14;55.01;101215.81;5081309;28;20177;-74
2022/03/13 08:26:20;;;;;;;24.48;19.10;;;;;;;10.19;55.95;101210.28;5060808;28;20148;-74
2022/03/13 08:28:45;;;;;;;26.48;19.45;;;;;;;10.21;55.49;101211.91;5101411;28;20490;-74
2022/03/13 08:31:11;;;;;;;25.60;19.50;;;;;;;10.29;55.49;101214.16;5064641;28;20407;-74
2022/03/13 08:33:42;;;;;;;27.55;19.10;;;;;;;10.46;55.30;101211.41;5067479;28;20039;-74
2022/03/13 08:36:07;;;;;;;24.65;19.77;;;;;;;10.57;55.31;101208.13;5097546;28;20031;-74
2022/03/13 08:38:32;;;;;;;24.15;19.55;;;;;;;10.64;54.28;101214.81;5101064;28;20034;-74
2022/03/13 08:41:00;;;;;;;29.17;19.00;;;;;;;10.67;54.21;101219.09;5090978;28;20020;-74
2022/03/13 08:43:26;;;;;;;23.50;19.13;;;;;;;10.71;53.64;101211.78;5095145;28;20027;-74
2022/03/13 08:45:52;;;;;;;24.35;19.33;;;;;;;10.77;54.50;101212.31;5077328;28;20092;-74
2022/03/13 08:48:17;;;;;;;22.70;19.13;;;;;;;10.89;53.29;101208.94;5107849;28;20036;-74
2022/03/13 08:50:43;;;;;;;29.77;19.42;;;;;;;11.10;53.72;101219.25;5080397;28;20028;-74
2022/03/13 08:53:08;;;;;;;22.83;18.88;;;;;;;11.27;52.52;101207.63;5066672;28;20032;-73
2022/03/13 08:55:36;;;;;;;24.30;19.85;;;;;;;11.42;51.46;101204.03;5079386;28;20065;-73
2022/03/13 08:58:02;;;;;;;25.05;19.90;;;;;;;11.55;51.12;101204.97;5087555;28;20121;-74
2022/03/13 09:00:27;;;;;;;25.35;20.55;;;;;;;11.81;51.38;101198.03;5107234;28;20099;-72
2022/03/13 09:02:53;;;;;;;22.95;19.35;;;;;;;11.96;50.92;101192.72;5074350;28;20111;-72
2022/03/13 09:05:19;;;;;;;25.25;18.83;;;;;;;12.14;49.97;101201.34;5078122;28;20020;-71
2022/03/13 09:07:44;;;;;;;24.05;20.00;;;;;;;12.36;49.77;101195.50;5112108;28;20486;-72
2022/03/13 09:10:12;;;;;;;22.13;18.95;;;;;;;12.53;49.48;101197.94;5092373;28;20030;-72
2022/03/13 09:12:39;;;;;;;23.98;19.52;;;;;;;12.78;49.41;101204.31;5100506;28;20059;-72
2022/03/13 09:15:06;;;;;;;25.30;19.85;;;;;;;12.86;48.43;101196.66;5075577;28;20059;-72
2022/03/13 09:17:31;;;;;;;24.58;19.48;;;;;;;13.04;48.58;101192.72;5094433;28;20051;-72
2022/03/13 09:19:58;;;;;;;23.17;19.05;;;;;;;13.14;48.40;101187.59;5105113;28;20058;-72
2022/03/13 09:22:30;;;;;;;23.33;18.45;;;;;;;13.23;48.19;101186.13;5082601;28;20126;-72
2022/03/13 09:24:57;;;;;;;23.77;19.92;;;;;;;13.58;47.80;101186.38;5092264;28;20030;-72
2022/03/13 09:27:27;;;;;;;21.15;18.88;;;;;;;13.69;47.06;101177.59;5093703;28;20340;-73
2022/03/13 09:29:54;;;;;;;;;;;;;;;13.96;48.33;101189.00;5105555;28;20114;-73
2022/03/13 09:32:19;;;;;;;23.17;18.85;;;;;;;13.99;46.53;101187.91;5111520;28;19911;-72
2022/03/13 09:34:45;;;;;;;20.95;18.33;;;;;;;14.04;46.44;101183.97;5083701;28;20027;-73
2022/03/13 09:37:12;;;;;;;23.20;18.33;;;;;;;14.16;46.33;101184.03;5074069;28;20052;-72
2022/03/13 09:39:38;;;;;;;24.00;17.88;;;;;;;14.49;45.73;101186.03;5084060;28;20062;-73
2022/03/13 09:42:04;;;;;;;22.63;17.73;;;;;;;14.56;46.20;101191.81;5074523;28;20020;-73
2022/03/13 09:44:29;;;;;;;19.27;16.85;;;;;;;14.85;44.81;101189.66;5075338;28;20032;-72
2022/03/13 09:46:58;;;;;;;20.00;17.33;;;;;;;14.95;44.47;101182.63;5076264;28;20032;-73
2022/03/13 09:49:24;;;;;;;23.83;17.20;;;;;;;14.84;43.81;101186.13;5109360;28;20398;-73
2022/03/13 09:51:51;;;;;;;22.17;17.23;;;;;;;14.83;44.29;101188.94;5101252;28;20106;-72
2022/03/13 09:54:17;;;;;;;20.90;16.65;;;;;;;14.98;44.31;101190.44;5075479;28;20559;-72
2022/03/13 09:56:42;;;;;;;19.98;16.52;;;;;;;15.14;43.87;101196.31;5092748;28;20111;-72
2022/03/13 09:59:08;;;;;;;20.15;16.58;;;;;;;15.22;43.49;101187.69;5097587;28;20031;-72
2022/03/13 10:01:34;;;;;;;19.17;15.68;;;;;;;15.34;42.75;101183.22;5065388;28;20467;-71
2022/03/13 10:03:59;;;;;;;18.52;15.95;;;;;;;15.39;42.77;101194.44;5092262;28;20054;-72
2022/03/13 10:06:28;;;;;;;19.58;15.13;;;;;;;15.57;42.89;101192.13;5093354;28;20129;-72
2022/03/13 10:08:56;;;;;;;23.23;16.52;;;;;;;15.57;42.51;101184.94;5088209;28;20035;-72
2022/03/13 10:11:33;;;;;;;18.95;14.57;;;;;;;15.59;43.23;101184.84;5111231;28;20039;-72
2022/03/13 10:14:07;;;;;;;19.92;14.38;;;;;;;15.71;42.56;101181.22;5094001;28;20043;-72
2022/03/13 10:16:39;;;;;;;18.38;14.57;;;;;;;15.70;42.72;101190.22;5074086;28;20033;-73
2022/03/13 10:19:17;;;;;;;17.40;14.80;;;;;;;15.85;42.75;101172.03;5111776;28;20059;-72
2022/03/13 10:22:07;;;;;;;15.50;13.82;;;;;;;15.99;42.14;101163.75;5111683;28;20020;-73
2022/03/13 10:24:59;;;;;;;18.17;14.95;;;;;;;16.32;41.80;101164.66;5111416;28;20051;-73
2022/03/13 10:27:24;;;;;;;15.15;13.55;;;;;;;16.32;41.26;101162.84;5080637;28;20515;-73
2022/03/13 10:29:49;;;;;;;16.65;13.55;;;;;;;16.49;41.31;101157.91;5094384;28;20032;-72
2022/03/13 10:32:16;;;;;;;19.80;13.63;;;;;;;16.68;40.41;101152.69;5097316;28;20542;-73
2022/03/13 10:34:51;;;;;;;15.65;13.88;;;;;;;16.86;39.78;101152.16;5084000;28;20042;-72
2022/03/13 10:37:31;;;;;;;18.27;13.77;;;;;;;16.98;39.78;101143.91;5098932;28;20034;-72
2022/03/13 10:40:25;;;;;;;15.95;12.70;;;;;;;16.97;39.63;101144.91;5109942;28;20400;-72
2022/03/13 10:42:54;;;;;;;16.23;13.07;;;;;;;16.87;39.22;101151.19;5111337;28;20092;-72
2022/03/13 10:45:49;;;;;;;13.38;11.80;;;;;;;16.90;40.02;101151.75;5111045;28;20389;-73
2022/03/13 10:48:16;;;;;;;15.13;12.13;;;;;;;17.17;39.37;101140.47;5105390;28;20079;-73
2022/03/13 10:50:48;;;;;;;14.98;12.57;;;;;;;17.10;39.04;101143.84;5096530;28;20528;-73
2022/03/13 10:53:14;;;;;;;15.27;11.95;;;;;;;17.10;39.06;101147.38;5072751;28;20061;-73
2022/03/13 10:55:43;;;;;;;12.77;11.15;;;;;;;17.01;39.35;101149.03;5092880;28;20031;-73
2022/03/13 10:58:09;;;;;;;;;;;;;;;17.25;39.42;101142.50;5098912;28;20024;-73
2022/03/13 11:00:35;;;;;;;14.95;12.18;;;;;;;16.96;39.14;101142.34;5090044;28;19943;-73
2022/03/13 11:03:17;;;;;;;15.95;12.43;;;;;;;16.93;39.71;101135.38;5056623;28;20067;-73
2022/03/13 11:05:42;;;;;;;16.95;12.13;;;;;;;17.24;40.09;101136.28;5075006;28;20109;-73
2022/03/13 11:08:08;;;;;;;14.73;12.70;;;;;;;17.51;37.89;101144.78;5091321;28;20028;-72
2022/03/13 11:10:37;;;;;;;14.70;13.05;;;;;;;17.63;37.94;101119.50;5090632;28;20479;-73
2022/03/13 11:13:06;;;;;;;13.40;12.00;;;;;;;18.17;36.95;101132.53;5109009;28;20098;-72
2022/03/13 11:15:35;;;;;;;12.82;10.65;;;;;;;18.47;36.54;101137.97;5110396;28;20095;-72